Observations for NEWCASTLE, United Kingdom (EGNT)

EGNT 242020Z 26003KT 7000 FEW012 BKN041 06/06 Q1004 
EGNT 241950Z 26004KT 7000 FEW012 BKN041 07/06 Q1004 
EGNT 241920Z 24004KT 7000 FEW012 BKN041 07/06 Q1004 
EGNT 241850Z 23003KT 7000 -RA FEW012 BKN041 08/07 Q1004 
EGNT 241820Z 23003KT 7000 -RA FEW012 BKN041 08/06 Q1005 
EGNT 241750Z 26005KT 7000 -RA FEW012 BKN041 08/06 Q1005 
EGNT 241720Z 27004KT 7000 -RA FEW012 BKN041 09/07 Q1005 
EGNT 241650Z 30004KT 7000 -RA FEW007 SCT016 BKN044 09/07 Q1005  
EGNT 241620Z 30004KT 270V330 4000 RA FEW008 SCT015 BKN027 09/07 Q1006   
EGNT 241550Z 29004KT 260V320 6000 -RA FEW015 BKN033 09/07 Q1006 
EGNT 241520Z 26007KT 6000 -RA FEW020 BKN042 09/07 Q1006 
EGNT 241450Z 30008KT 6000 -RA FEW018 BKN027 09/07 Q1007 
EGNT 241420Z 28008KT 6000 -RA SCT030 BKN042 10/07 Q1007 
EGNT 241350Z 29010KT 9999 -SHRA SCT020 SCT040 10/07 Q1007   
EGNT 241320Z 28011KT 9999 -SHRA FEW030 SCT042 11/05 Q1007   
EGNT 241250Z 27009KT 9999 FEW035 SCT047 12/05 Q1008 
EGNT 241220Z 28012KT 9999 FEW035 SCT047 12/04 Q1008 
EGNT 241150Z 27014KT 9999 FEW032 SCT045 12/04 Q1008 
EGNT 241120Z 26014KT 9999 FEW035 12/04 Q1009
EGNT 241050Z 26015KT 9999 FEW030 12/04 Q1009
EGNT 241020Z 27014KT 9999 FEW030 11/04 Q1009
EGNT 240950Z 26017KT 9999 FEW030 12/04 Q1009
EGNT 240920Z 26016KT 9999 SCT025 11/04 Q1009
EGNT 240850Z 27016KT 9999 SCT025 11/05 Q1008
EGNT 240820Z 27016KT 9999 SCT022 11/05 Q1008
EGNT 240750Z 26016KT 9999 SCT020 10/05 Q1008
EGNT 240720Z 27020KT 9999 SCT017 09/05 Q1008
EGNT 240650Z 27021KT 9999 SCT015 09/05 Q1008
EGNT 240620Z 28014KT 9999 SCT016 08/05 Q1008
EGNT 240550Z 28011KT 9999 SCT016 08/05 Q1007
EGNT 240520Z 28013KT 9999 FEW016 08/05 Q1007
EGNT 240450Z 27013KT 9999 FEW018 08/05 Q1007
EGNT 240420Z 27015KT 9999 FEW020 08/05 Q1006
EGNT 240350Z 27012KT 9999 FEW018 SCT028 08/05 Q1007 
EGNT 240320Z 27016G28KT 9999 FEW026 09/05 Q1007 
EGNT 240250Z 26016KT 9999 SCT024 09/05 Q1007
EGNT 240220Z 26010KT 9999 SCT030 09/04 Q1006
EGNT 240150Z 27010KT 9999 SCT023 08/04 Q1006
EGNT 240120Z 26012KT CAVOK 09/04 Q1006  
EGNT 240050Z 27014KT CAVOK 09/04 Q1006  
EGNT 240020Z 28012KT 9999 FEW025 09/04 Q1006
EGNT 232350Z 29013KT 9999 FEW027 09/04 Q1007
EGNT 232320Z 27017G30KT 9999 FEW040 09/04 Q1007 
EGNT 232250Z 27018KT CAVOK 09/05 Q1006  
EGNT 232220Z 27021KT CAVOK 10/06 Q1006  
EGNT 232150Z 26016KT CAVOK 10/06 Q1005  
EGNT 232120Z 27017KT 9999 SCT021 10/06 Q1005
EGNT 232050Z 27015KT 9999 BKN018 11/07 Q1005
EGNT 232020Z 25011KT 9999 BKN020 12/08 Q1005
EGNT 231950Z 23009KT 9999 SCT020 BKN034 11/07 Q1005